• Join FlightAware (Why Join?)
  • Login
  • US Flag 
09:19PM EST


 

Airport Tracker/Info


-or-


 

Live Flight TrackerFlight Track Log ✈ CHQ5030 ✈ 04-May-2012 ✈ KPIA - KORD

Flight Track Log - Related Links

Times and Time Zones

All times are in EDT time to prevent confusion due to time zone crossing. See the CHQ5030 flight status page for this flight to view local times or setup timezone preferences in your user account.

Time Position Orientation Groundspeed Altitude Reporting Facility
EDT Latitude Longitude Course Direction KTS MPH feet Rate Location/Type
11:56AM 40.6772 -89.6762 351° North  Level FlightAware Approximate
11:57AM 40.7500 -89.6667 329° Northwest  Level FlightAware Approximate
11:58AM 40.8210 -89.6500 234° Southwest  Level FlightAware Approximate
11:59AM 40.7928 -89.7011 13° North 256 295 4,700  Level Chicago Center
12:00PM 40.8533 -89.6819 14° North 259 298 7,300 2,400 Climbing Chicago Center
12:01PM 40.9264 -89.6578 13° North 289 333 9,500 1,740 Climbing Chicago Center
12:02PM 41.0056 -89.6333 13° North 294 338 10,800 720 Climbing Chicago Center
12:03PM 41.1017 -89.6033 33° Northeast 317 365 11,000 60 Climbing Chicago Center
12:04PM 41.1831 -89.5319 61° Northeast 346 398 11,000  Level Chicago Center
12:05PM 41.2353 -89.4053 63° Northeast 382 440 11,000  Level Chicago Center
12:06PM 41.2811 -89.2836 62° Northeast 365 420 11,000  Level Chicago Center
12:07PM 41.3269 -89.1703 62° Northeast 360 414 11,000  Level Chicago Center
12:08PM 41.3744 -89.0511 62° Northeast 355 409 11,000  Level Chicago Center
12:09PM 41.4222 -88.9317 62° Northeast 355 409 11,000  Level Chicago Center
12:10PM 41.4694 -88.8122 61° Northeast 355 409 11,000  Level Chicago Center
12:11PM 41.5128 -88.7094 62° Northeast 340 391 11,000 -60 Level Chicago Center
12:12PM 41.5519 -88.6092 55° Northeast 319 367 10,900 -180 Descending Chicago Center
12:13PM 41.5969 -88.5225 50° Northeast 296 341 10,700 -720 Descending Chicago Center
12:14PM 41.6506 -88.4383 41° Northeast 291 335 9,500 -1,200 Descending Chicago Center
12:15PM 41.7106 -88.3681 359° North 283 326 8,300 -1,080 Descending Chicago Center
12:16PM 41.7814 -88.3697 357° North 261 300 7,400 -660 Descending Chicago Center
12:17PM 41.8503 -88.3742 336° Northwest 251 289 7,000 -540 Descending Chicago Center
12:18PM 41.9111 -88.4097 15° North 240 276 6,400 -660 Descending Chicago Center
12:19PM 41.9672 -88.3892 90° East 194 223 5,700 -480 Descending Chicago Center
12:21PM 41.9667 -88.2500 90° East 188 216 5,000 -480 Descending Chicago TRACON
12:22PM 41.9667 -88.1667 90° East 194 223 4,300 -900 Descending Chicago TRACON
12:23PM 41.9667 -88.1000 90° East 197 227 3,300 -1,020 Descending Chicago TRACON